Datum - ZeitTemperaturTaupunktFeuchteSolar Wind aus Richtung WindböenRegen
26.11.2022 - 00.00Uhr8.6 °C6.7 °C88 %0.0 W/m²11.4 km/hWest-SW20.9 km/h0.0 mm
26.11.2022 - 00.30Uhr8.7 °C6.8 °C88 %0.0 W/m²10.8 km/hWest-SW20.9 km/h0.0 mm
26.11.2022 - 01.00Uhr8.7 °C6.8 °C88 %0.0 W/m²10.7 km/hWest-SW20.9 km/h0.0 mm
26.11.2022 - 01.30Uhr8.6 °C6.7 °C88 %0.0 W/m²10.5 km/hWest-SW22.7 km/h0.0 mm
26.11.2022 - 02.00Uhr8.5 °C6.6 °C88 %0.0 W/m²9.2 km/hWest-SW22.7 km/h0.0 mm
26.11.2022 - 02.30Uhr8.4 °C6.5 °C88 %0.0 W/m²11.6 km/hWest-SW24.1 km/h0.0 mm
26.11.2022 - 03.00Uhr8.3 °C6.4 °C88 %0.0 W/m²13.3 km/hWest-SW20.9 km/h0.0 mm
26.11.2022 - 03.30Uhr8.0 °C6.1 °C88 %0.0 W/m²12.4 km/hWest-SW22.7 km/h0.0 mm
26.11.2022 - 04.00Uhr7.8 °C5.9 °C88 %0.0 W/m²11.4 km/hWest-SW22.7 km/h0.0 mm
26.11.2022 - 04.30Uhr7.7 °C5.8 °C88 %0.0 W/m²13.7 km/hWest-SW24.1 km/h0.0 mm
26.11.2022 - 05.00Uhr7.7 °C5.8 °C88 %0.0 W/m²14.5 km/hWest-SW24.1 km/h0.0 mm
26.11.2022 - 05.30Uhr7.5 °C5.6 °C88 %0.0 W/m²12.7 km/hWest-SW22.7 km/h0.0 mm
26.11.2022 - 06.00Uhr7.1 °C5.3 °C88 %0.0 W/m²10.2 km/hSüdwesten20.9 km/h0.0 mm
26.11.2022 - 06.30Uhr6.5 °C4.8 °C89 %0.0 W/m²7.3 km/hSüdwesten16.2 km/h0.0 mm
26.11.2022 - 07.00Uhr5.8 °C4.2 °C90 %0.0 W/m²6.5 km/hSüdwesten13.0 km/h0.0 mm
26.11.2022 - 07.30Uhr5.1 °C3.8 °C91 %5.0 W/m²7.6 km/hSüdwesten16.2 km/h0.0 mm
26.11.2022 - 08.00Uhr4.8 °C3.7 °C92 %21.0 W/m²8.6 km/hSüdwesten14.4 km/h0.0 mm
26.11.2022 - 08.30Uhr5.0 °C4.0 °C93 %67.0 W/m²8.7 km/hSüdwesten16.2 km/h0.0 mm
26.11.2022 - 09.00Uhr5.8 °C4.7 °C92 %113.0 W/m²7.3 km/hSüdwesten16.2 km/h0.0 mm
26.11.2022 - 09.30Uhr7.4 °C5.6 °C88 %225.0 W/m²6.7 km/hSüdwesten13.0 km/h0.0 mm
26.11.2022 - 10.00Uhr8.3 °C5.9 °C85 %204.0 W/m²9.7 km/hSüdwesten27.4 km/h0.0 mm
26.11.2022 - 10.30Uhr8.5 °C5.9 °C84 %232.0 W/m²11.1 km/hWest-SW22.7 km/h0.0 mm
26.11.2022 - 11.00Uhr16.3 km/hWest-SW17.6 km/h